createdAt,value
2022-12-15T00:02:32.824Z,-28
2022-12-15T00:04:34.891Z,-28
2022-12-15T00:06:36.486Z,-27.9
2022-12-15T00:08:38.228Z,-28.2
2022-12-15T00:10:40.328Z,-27.8
2022-12-15T00:12:41.993Z,-28
2022-12-15T00:16:45.052Z,-28.1
2022-12-15T00:18:46.553Z,-28.1
2022-12-15T00:20:47.838Z,-28
2022-12-15T00:22:49.543Z,-28
2022-12-15T00:26:53.449Z,-27.9
2022-12-15T00:28:54.857Z,-28.1
2022-12-15T00:31:02.018Z,-27.7
2022-12-15T00:32:58.143Z,-28
2022-12-15T00:34:59.573Z,-27.9
2022-12-15T00:37:01.616Z,-27.9
2022-12-15T00:39:04.025Z,-28
2022-12-15T00:45:08.743Z,-28.2
2022-12-15T00:49:11.425Z,-27.8
2022-12-15T00:51:12.845Z,-28
2022-12-15T00:53:14.446Z,-28.2
2022-12-15T00:55:16.463Z,-27.9
2022-12-15T00:57:18.083Z,-28.1
2022-12-15T00:59:20.068Z,-28.1
2022-12-15T01:01:22.161Z,-27.9
2022-12-15T01:03:23.776Z,-27.9
2022-12-15T01:05:25.406Z,-27.8
2022-12-15T01:07:26.579Z,-27.9
2022-12-15T01:09:27.856Z,-28.2
2022-12-15T01:11:29.209Z,-27.8
2022-12-15T01:13:31.338Z,-27.7
2022-12-15T01:15:32.902Z,-27.9
2022-12-15T01:17:34.291Z,-28.1
2022-12-15T01:19:35.784Z,-28
2022-12-15T01:21:37.629Z,-27.8
2022-12-15T01:23:39.678Z,-27.8
2022-12-15T01:27:42.192Z,-28.2
2022-12-15T01:31:45.232Z,-28.2
2022-12-15T01:33:46.644Z,-27.8
2022-12-15T01:37:50.464Z,-28.2
2022-12-15T01:39:52.356Z,-27.9
2022-12-15T01:41:53.770Z,-28.2
2022-12-15T01:43:55.704Z,-28
2022-12-15T01:45:56.974Z,-27.8
2022-12-15T01:47:58.765Z,-27.7
2022-12-15T01:49:59.964Z,-27.9
2022-12-15T01:52:01.234Z,-27.8
2022-12-15T01:54:03.141Z,-28
2022-12-15T01:56:04.895Z,-27.9
2022-12-15T01:58:06.982Z,-28.3
2022-12-15T02:00:09.010Z,-28.1
2022-12-15T02:02:10.450Z,-27.9
2022-12-15T02:04:12.279Z,-27.7
2022-12-15T02:06:13.949Z,-28
2022-12-15T02:10:17.347Z,-27.7
2022-12-15T02:14:20.768Z,-27.9
2022-12-15T02:16:22.193Z,-27.9
2022-12-15T02:18:23.279Z,-28.2
2022-12-15T02:20:24.568Z,-28.3
2022-12-15T02:24:27.651Z,-27.9
2022-12-15T02:26:28.796Z,-28
2022-12-15T02:28:29.983Z,-27.9
2022-12-15T02:30:31.164Z,-28.1
2022-12-15T02:32:33.189Z,-27.8
2022-12-15T02:34:34.341Z,-28
2022-12-15T02:36:36.194Z,-27.6
2022-12-15T02:38:37.656Z,-28
2022-12-15T02:40:39.221Z,-28.1
2022-12-15T02:42:40.575Z,-28
2022-12-15T02:44:42.223Z,-28
2022-12-15T02:46:43.989Z,-27.9
2022-12-15T02:48:45.667Z,-27.8
2022-12-15T02:50:47.464Z,-28.2
2022-12-15T02:52:49.095Z,-27.9
2022-12-15T02:54:50.319Z,-28
2022-12-15T02:56:51.506Z,-27.8
2022-12-15T02:58:53.265Z,-27.8
2022-12-15T03:00:54.959Z,-27.8
2022-12-15T03:02:56.792Z,-27.7
2022-12-15T03:04:58.482Z,-27.9
2022-12-15T03:09:02.169Z,-27.9
2022-12-15T03:11:04.017Z,-27.7
2022-12-15T03:13:05.202Z,-27.8
2022-12-15T03:15:06.765Z,-27.8
2022-12-15T03:17:08.107Z,-27.9
2022-12-15T03:19:09.587Z,-28
2022-12-15T03:23:12.510Z,-27.8
2022-12-15T03:25:14.092Z,-27.8
2022-12-15T03:27:16.065Z,-28.1
2022-12-15T03:29:17.674Z,-27.9
2022-12-15T03:31:18.971Z,-28.2
2022-12-15T03:33:21.022Z,-27.8
2022-12-15T03:35:23.043Z,-28
2022-12-15T03:37:24.347Z,-27.8
2022-12-15T03:39:25.577Z,-28
2022-12-15T03:41:27.574Z,-27.7
2022-12-15T03:42:11.592Z,-27.8
2022-12-15T03:46:14.696Z,-27.8
2022-12-15T03:48:16.330Z,-27.9
2022-12-15T03:50:17.616Z,-28
2022-12-15T03:52:19.342Z,-28.1
2022-12-15T03:54:20.776Z,-27.8
2022-12-15T03:56:22.087Z,-27.8
2022-12-15T04:02:26.911Z,-27.9
2022-12-15T04:04:28.064Z,-27.9
2022-12-15T04:06:29.746Z,-28.1
2022-12-15T04:08:31.153Z,-27.9
2022-12-15T04:10:34.575Z,-28
2022-12-15T04:12:34.616Z,-27.9
2022-12-15T04:16:37.130Z,-28.1
2022-12-15T04:18:39.108Z,-27.9
2022-12-15T04:20:40.896Z,-27.9
2022-12-15T04:22:42.092Z,-28
2022-12-15T04:28:46.655Z,-27.9
2022-12-15T04:32:50.191Z,-27.7
2022-12-15T04:34:50.982Z,-27.9
2022-12-15T04:36:52.168Z,-28
2022-12-15T04:38:53.595Z,-28.1
2022-12-15T04:42:57.400Z,-28
2022-12-15T04:44:58.713Z,-27.9
2022-12-15T04:47:00.088Z,-27.9
2022-12-15T04:49:01.700Z,-27.8
2022-12-15T04:53:04.490Z,-28.2
2022-12-15T04:55:06.066Z,-27.8
2022-12-15T04:57:07.599Z,-27.8
2022-12-15T04:59:09.359Z,-28
2022-12-15T05:01:11.147Z,-27.9
2022-12-15T05:03:18.066Z,-27.9
2022-12-15T05:05:13.978Z,-28.1
2022-12-15T05:11:19.608Z,-28
2022-12-15T05:13:21.068Z,-27.9
2022-12-15T05:15:22.474Z,-28.1
2022-12-15T05:17:23.731Z,-27.8
2022-12-15T05:19:25.766Z,-27.9
2022-12-15T05:21:26.944Z,-28.2
2022-12-15T05:23:28.840Z,-27.9
2022-12-15T05:25:30.635Z,-27.9
2022-12-15T05:27:32.687Z,-27.8
2022-12-15T05:29:34.113Z,-27.9
2022-12-15T05:31:35.614Z,-28
2022-12-15T05:33:37.368Z,-27.9
2022-12-15T05:37:40.819Z,-28.2
2022-12-15T05:39:41.979Z,-28.1
2022-12-15T05:41:44.063Z,-27.9
2022-12-15T05:43:45.817Z,-27.8
2022-12-15T05:45:47.170Z,-27.7
2022-12-15T05:47:48.867Z,-28.2
2022-12-15T05:49:50.184Z,-27.9
2022-12-15T05:53:54.131Z,-27.9
2022-12-15T05:55:55.679Z,-27.8
2022-12-15T05:57:57.434Z,-28.2
2022-12-15T05:59:59.183Z,-28
2022-12-15T06:02:00.700Z,-28.1
2022-12-15T06:04:02.057Z,-28.2
2022-12-15T06:06:03.609Z,-28
2022-12-15T06:08:05.129Z,-27.9
2022-12-15T06:10:06.763Z,-28
2022-12-15T06:12:08.400Z,-28
2022-12-15T06:14:10.372Z,-28.2
2022-12-15T06:16:11.660Z,-28.2
2022-12-15T06:18:13.302Z,-28
2022-12-15T06:20:15.148Z,-27.9
2022-12-15T06:24:18.526Z,-27.9
2022-12-15T06:26:20.264Z,-28
2022-12-15T06:28:21.788Z,-28.1
2022-12-15T06:30:23.165Z,-28.2
2022-12-15T06:36:27.746Z,-28
2022-12-15T06:38:28.881Z,-28
2022-12-15T06:40:34.766Z,-27.9
2022-12-15T06:42:31.610Z,-28.2
2022-12-15T06:44:33.438Z,-27.9
2022-12-15T07:08:53.777Z,-28.2
2022-12-15T07:16:59.664Z,-28.2
2022-12-15T07:23:04.973Z,-28.2
2022-12-15T07:41:19.994Z,-28.3
2022-12-15T07:57:31.563Z,-28
2022-12-15T08:11:43.201Z,-28.3
2022-12-15T08:15:46.058Z,-27.9
2022-12-15T08:31:58.500Z,-28
2022-12-15T08:40:05.894Z,-27.9
2022-12-15T08:42:07.938Z,-28.2
2022-12-15T08:48:13.280Z,-27.8
2022-12-15T09:04:26.403Z,-27.8
2022-12-15T09:32:48.975Z,76.4
2022-12-15T09:40:55.375Z,81.4
2022-12-15T09:43:17.856Z,81.5
2022-12-15T09:44:59.485Z,81.4
2022-12-15T09:57:08.697Z,81.8
2022-12-15T10:09:16.192Z,81.9
2022-12-15T10:17:21.719Z,81.69
2022-12-15T10:30:14.926Z,81.6
2022-12-15T10:34:17.755Z,81.69
2022-12-15T10:46:27.174Z,81.6
2022-12-15T11:02:40.184Z,81.6
2022-12-15T11:10:45.278Z,81.6
2022-12-15T11:22:56.654Z,81.69
2022-12-15T11:24:58.127Z,81.9
2022-12-15T11:49:18.633Z,81.5
2022-12-15T12:11:39.607Z,81.6
2022-12-15T12:13:41.310Z,81.6
2022-12-15T12:15:43.536Z,81.1
2022-12-15T12:27:52.051Z,22.6
2022-12-15T12:31:59.044Z,20.29
2022-12-15T12:46:07.481Z,29.8
2022-12-15T13:06:23.507Z,27.9
2022-12-15T13:12:50.645Z,29.3
2022-12-15T13:14:30.258Z,29.7
2022-12-15T13:18:33.449Z,29.5
2022-12-15T13:22:35.840Z,29.6
2022-12-15T13:24:37.785Z,28.4
2022-12-15T13:26:39.701Z,26.7
2022-12-15T13:28:40.962Z,28.2
2022-12-15T13:30:42.340Z,30
2022-12-15T13:32:43.973Z,30.8
2022-12-15T13:34:45.913Z,30.9
2022-12-15T13:36:50.798Z,30.1
2022-12-15T13:38:48.859Z,30.4
2022-12-15T13:40:50.505Z,30.1
2022-12-15T13:42:58.009Z,29.3
2022-12-15T13:44:53.155Z,27.3
2022-12-15T13:46:54.378Z,24.4
2022-12-15T13:48:56.112Z,20.29
2022-12-15T13:50:57.431Z,18.2
2022-12-15T13:53:18.187Z,16.29
2022-12-15T13:55:00.356Z,17.7
2022-12-15T13:57:01.753Z,21.8
2022-12-15T13:59:03.436Z,20.9
2022-12-15T14:01:05.214Z,20.9
2022-12-15T14:03:06.579Z,23.9
2022-12-15T14:05:08.523Z,24.3
2022-12-15T14:09:11.887Z,23
2022-12-15T14:13:16.301Z,25.9
2022-12-15T14:15:17.522Z,23.4
2022-12-15T14:17:18.595Z,10.9
2022-12-15T14:19:20.510Z,-0.2
2022-12-15T14:21:22.276Z,-22.6
2022-12-15T14:23:23.678Z,-23.9
2022-12-15T14:25:24.950Z,-24.3
2022-12-15T14:27:26.316Z,-26.3
2022-12-15T14:29:27.715Z,-27.9
2022-12-15T14:31:29.189Z,-28
2022-12-15T14:33:30.488Z,-28.3
2022-12-15T14:35:32.003Z,-28
2022-12-15T14:37:33.748Z,-28.3
2022-12-15T14:39:34.995Z,-28
2022-12-15T14:41:36.516Z,50.6
2022-12-15T14:43:37.800Z,-28
2022-12-15T14:45:39.779Z,-28.2
2022-12-15T14:47:41.426Z,-28
2022-12-15T14:49:43.357Z,-28.2
2022-12-15T14:51:44.758Z,-27.7
2022-12-15T14:55:48.352Z,-28.1
2022-12-15T14:57:50.294Z,-28
2022-12-15T14:59:52.094Z,-28
2022-12-15T15:01:58.449Z,-28
2022-12-15T15:05:57.446Z,-27.9
2022-12-15T15:07:59.029Z,-28.2
2022-12-15T15:10:00.137Z,-28.4
2022-12-15T15:12:02.169Z,-27.9
2022-12-15T15:14:04.304Z,-28.3
2022-12-15T15:16:06.211Z,-28.2
2022-12-15T15:18:07.660Z,-28
2022-12-15T15:20:09.188Z,-28.3
2022-12-15T15:22:10.330Z,-28
2022-12-15T15:24:12.064Z,-28
2022-12-15T15:26:13.738Z,-27.9
2022-12-15T15:28:15.073Z,-27.7
2022-12-15T15:30:16.907Z,-28.2
2022-12-15T15:32:18.818Z,-28.5
2022-12-15T15:34:20.517Z,-28
2022-12-15T15:38:24.117Z,-28.2
2022-12-15T15:40:25.729Z,-28.1
2022-12-15T15:42:32.187Z,-27.8
2022-12-15T15:44:28.538Z,-27.9
2022-12-15T15:50:33.533Z,-28
2022-12-15T15:52:35.412Z,-28.1
2022-12-15T15:54:37.486Z,-28.3
2022-12-15T15:56:38.845Z,-28.2
2022-12-15T15:58:40.307Z,-28
2022-12-15T16:00:41.906Z,-27.9
2022-12-15T16:02:43.226Z,-28
2022-12-15T16:04:45.112Z,-28
2022-12-15T16:06:47.721Z,-28.3
2022-12-15T16:08:47.629Z,-28.1
2022-12-15T16:10:49.304Z,-28
2022-12-15T16:12:51.010Z,-27.9
2022-12-15T16:14:52.277Z,-28.2
2022-12-15T16:16:53.594Z,-28
2022-12-15T16:18:55.055Z,-28.3
2022-12-15T16:20:56.277Z,-28
2022-12-15T16:22:57.546Z,-28.2
2022-12-15T16:24:59.486Z,-28
2022-12-15T16:27:01.066Z,-28
2022-12-15T16:29:03.150Z,-27.8
2022-12-15T16:31:04.384Z,-28
2022-12-15T16:33:05.572Z,-28.2
2022-12-15T16:35:07.166Z,-28.1
2022-12-15T16:37:08.550Z,-28.2
2022-12-15T16:39:09.997Z,-27.9
2022-12-15T16:41:11.721Z,-27.9
2022-12-15T16:43:13.125Z,-27.7
2022-12-15T16:49:16.995Z,-27.7
2022-12-15T16:51:18.643Z,-28.2
2022-12-15T16:53:20.481Z,-28
2022-12-15T16:55:21.815Z,-28
2022-12-15T16:57:23.397Z,-28
2022-12-15T16:59:33.768Z,-28.3
2022-12-15T17:01:26.440Z,-28.3
2022-12-15T17:03:28.070Z,-27.8
2022-12-15T17:05:29.202Z,-28.2
2022-12-15T17:09:32.600Z,-27.8
2022-12-15T17:11:34.256Z,-28.3
2022-12-15T17:13:42.044Z,-27.9
2022-12-15T17:16:21.708Z,-27.8
2022-12-15T17:18:22.884Z,-28
2022-12-15T17:20:29.344Z,-28
2022-12-15T17:26:29.822Z,-27.9
2022-12-15T17:28:30.976Z,-27.8
2022-12-15T17:30:32.593Z,-28.1
2022-12-15T17:34:35.307Z,-28.2
2022-12-15T17:36:36.855Z,-28
2022-12-15T17:38:38.362Z,-28.2
2022-12-15T17:40:40.020Z,-28
2022-12-15T17:42:41.502Z,-28
2022-12-15T17:46:44.796Z,-28.4
2022-12-15T17:48:46.006Z,-28
2022-12-15T17:50:47.699Z,-28.2
2022-12-15T17:52:49.323Z,-27.9
2022-12-15T17:54:51.444Z,-27.9
2022-12-15T17:56:52.672Z,-27.8
2022-12-15T17:58:54.415Z,-27.8
2022-12-15T18:00:56.047Z,-28
2022-12-15T18:02:57.486Z,-28.1
2022-12-15T18:09:01.954Z,-28.1
2022-12-15T18:11:03.685Z,-27.9
2022-12-15T18:13:05.128Z,-28.3
2022-12-15T18:15:06.278Z,-28.2
2022-12-15T18:17:07.512Z,-27.9
2022-12-15T18:19:09.238Z,-28
2022-12-15T18:23:11.943Z,-28
2022-12-15T18:25:13.652Z,-27.7
2022-12-15T18:27:14.873Z,-28.4
2022-12-15T18:29:16.560Z,-28.1
2022-12-15T18:31:18.432Z,-27.9
2022-12-15T18:33:19.680Z,-27.8
2022-12-15T18:35:21.506Z,-27.7
2022-12-15T18:39:25.107Z,-28
2022-12-15T18:41:27.266Z,-28.1
2022-12-15T18:43:29.053Z,-28
2022-12-15T18:45:30.175Z,-28
2022-12-15T18:51:34.630Z,-28.1
2022-12-15T18:53:36.126Z,-28.2
2022-12-15T18:55:37.400Z,-27.9
2022-12-15T18:57:38.641Z,-27.9
2022-12-15T18:59:39.809Z,-28.3
2022-12-15T19:01:41.707Z,-27.9
2022-12-15T19:05:44.762Z,-27.9
2022-12-15T19:07:46.138Z,-28.2
2022-12-15T19:11:49.061Z,-28.3
2022-12-15T19:13:50.651Z,-27.8
2022-12-15T19:17:53.828Z,-28.1
2022-12-15T19:21:57.132Z,-27.9
2022-12-15T19:23:58.921Z,-27.9
2022-12-15T19:26:00.237Z,-28.1
2022-12-15T19:28:01.702Z,-27.8
2022-12-15T19:30:03.402Z,-27.8
2022-12-15T19:32:04.955Z,-27.9
2022-12-15T19:34:06.500Z,-27.9
2022-12-15T19:36:07.704Z,-27.9
2022-12-15T19:38:09.743Z,-28.4
2022-12-15T19:40:11.748Z,-28
2022-12-15T19:42:13.758Z,-28.2
2022-12-15T19:44:15.753Z,-28.3
2022-12-15T19:46:17.222Z,-27.9
2022-12-15T19:48:21.660Z,-28
2022-12-15T19:50:20.583Z,-28.1
2022-12-15T19:52:21.769Z,-27.9
2022-12-15T19:54:23.875Z,-27.9
2022-12-15T19:56:25.535Z,-28
2022-12-15T20:00:28.902Z,-28
2022-12-15T20:02:30.568Z,-28
2022-12-15T20:04:32.172Z,-28
2022-12-15T20:06:33.911Z,-27.9
2022-12-15T20:08:35.479Z,-28
2022-12-15T20:10:37.360Z,-28
2022-12-15T20:12:38.631Z,-28.1
2022-12-15T20:14:40.521Z,-28
2022-12-15T20:16:42.440Z,-28
2022-12-15T20:18:43.797Z,-28
2022-12-15T20:20:45.168Z,-28.2
2022-12-15T20:22:46.429Z,-28.3
2022-12-15T20:24:48.133Z,-28.2
2022-12-15T20:26:49.953Z,-28.2
2022-12-15T20:28:51.330Z,-27.9
2022-12-15T20:30:52.500Z,-28.1
2022-12-15T20:32:54.136Z,-28
2022-12-15T20:34:55.762Z,-28.3
2022-12-15T20:36:57.836Z,-28.2
2022-12-15T20:38:59.569Z,-28.2
2022-12-15T20:43:02.776Z,-28
2022-12-15T20:45:04.926Z,-28
2022-12-15T20:47:06.965Z,-28.3
2022-12-15T20:49:08.755Z,-28.3
2022-12-15T20:51:10.189Z,-28.2
2022-12-15T20:53:11.634Z,-28
2022-12-15T20:55:13.089Z,-28
2022-12-15T20:57:14.578Z,-28
2022-12-15T20:59:15.752Z,-28
2022-12-15T21:03:19.253Z,-27.9
2022-12-15T21:05:20.711Z,-28
2022-12-15T21:07:22.779Z,-28
2022-12-15T21:09:23.955Z,-28.1
2022-12-15T21:11:25.847Z,-27.8
2022-12-15T21:13:27.268Z,-28
2022-12-15T21:15:28.459Z,-27.8
2022-12-15T21:17:29.853Z,-28
2022-12-15T21:19:31.370Z,-27.9
2022-12-15T21:21:33.017Z,-28
2022-12-15T21:23:37.410Z,-28.3
2022-12-15T21:25:36.596Z,-27.9
2022-12-15T21:27:38.308Z,-27.8
2022-12-15T21:29:40.328Z,-28.2
2022-12-15T21:31:42.388Z,-28.1
2022-12-15T21:33:43.622Z,-28
2022-12-15T21:35:45.239Z,-28.4
2022-12-15T21:39:48.263Z,-28.1
2022-12-15T21:41:49.413Z,-28.1
2022-12-15T21:43:51.015Z,-28
2022-12-15T21:47:53.557Z,-28
2022-12-15T21:49:55.306Z,-28.2
2022-12-15T21:51:56.662Z,-28.2
2022-12-15T21:53:58.351Z,-28.2
2022-12-15T21:56:00.165Z,-27.8
2022-12-15T21:58:01.378Z,-27.7
2022-12-15T22:00:03.068Z,-27.8
2022-12-15T22:02:05.161Z,-28
2022-12-15T22:04:06.743Z,-27.9
2022-12-15T22:08:10.115Z,-27.9
2022-12-15T22:12:12.517Z,-28.1
2022-12-15T22:14:14.271Z,-28.2
2022-12-15T22:16:15.764Z,-28.1
2022-12-15T22:18:17.423Z,-28.2
2022-12-15T22:24:22.191Z,-28.2
2022-12-15T22:26:24.167Z,-28.1
2022-12-15T22:28:26.171Z,-28
2022-12-15T22:30:27.601Z,-28
2022-12-15T22:32:29.086Z,-27.8
2022-12-15T22:34:31.031Z,-28.1
2022-12-15T22:36:32.817Z,-28
2022-12-15T22:38:34.664Z,-27.8
2022-12-15T22:40:35.490Z,-27.9
2022-12-15T22:42:36.734Z,-28
2022-12-15T22:44:37.887Z,-28
2022-12-15T22:46:38.969Z,-28
2022-12-15T22:48:40.504Z,-27.9
2022-12-15T22:50:42.063Z,-27.9
2022-12-15T22:52:43.519Z,-27.9
2022-12-15T22:54:45.875Z,-27.8
2022-12-15T22:56:46.684Z,-28.2
2022-12-15T22:58:47.905Z,-27.9
2022-12-15T23:00:49.442Z,-28
2022-12-15T23:02:50.898Z,-28.2
2022-12-15T23:06:54.907Z,-28.2
2022-12-15T23:08:56.355Z,-28
2022-12-15T23:10:57.291Z,-28.2
2022-12-15T23:12:58.670Z,-27.9
2022-12-15T23:15:00.738Z,-28.2
2022-12-15T23:17:02.161Z,-28.3
2022-12-15T23:19:04.375Z,-27.7
2022-12-15T23:21:05.589Z,-28
2022-12-15T23:23:07.335Z,-28
2022-12-15T23:25:08.773Z,-28.3
2022-12-15T23:27:10.320Z,-27.8
2022-12-15T23:29:12.364Z,-28.3
2022-12-15T23:31:14.292Z,-28.2
2022-12-15T23:33:15.841Z,-27.8
2022-12-15T23:37:18.856Z,-28.2
2022-12-15T23:39:20.487Z,-27.7
2022-12-15T23:43:24.037Z,-28.2
2022-12-15T23:49:28.230Z,-28.2
2022-12-15T23:51:29.346Z,-27.8
2022-12-15T23:53:31.232Z,-28
2022-12-15T23:55:32.240Z,-28
2022-12-15T23:57:33.412Z,-28
2022-12-15T23:59:34.574Z,-28.1
